Time;durP1;ratioP1;P1;durP2;ratioP2;P2;SDS_P1;SDS_P2;PMS_P1;PMS_P2;Temp;Humidity;BMP_temperature;BMP_pressure;BME280_temperature;BME280_humidity;BME280_pressure;Samples;Min_cycle;Max_cycle;Signal;HPM_P1;HPM_P2
2021/09/07 00:00:45;;;;;;;0.00;0.00;;;10.70;60.10;;;;;;5035920;28;20029;-74
2021/09/07 00:03:11;;;;;;;0.00;0.00;;;10.70;60.10;;;;;;5035087;28;20508;-73
2021/09/07 00:05:37;;;;;;;0.00;0.00;;;10.70;60.20;;;;;;5035347;28;20033;-74
2021/09/07 00:08:03;;;;;;;0.00;0.00;;;10.70;60.20;;;;;;5034961;28;20124;-74
2021/09/07 00:10:29;;;;;;;0.00;0.00;;;10.70;60.40;;;;;;5034918;28;20095;-74
2021/09/07 00:12:55;;;;;;;0.00;0.00;;;10.70;60.40;;;;;;5035173;28;20118;-75
2021/09/07 00:15:21;;;;;;;0.00;0.00;;;10.60;60.50;;;;;;5035134;28;20064;-74
2021/09/07 00:17:47;;;;;;;0.00;0.00;;;10.60;60.60;;;;;;5035402;28;20034;-74
2021/09/07 00:20:14;;;;;;;0.00;0.00;;;10.60;60.60;;;;;;5050368;28;20021;-77
2021/09/07 00:22:42;;;;;;;0.00;0.00;;;10.60;60.80;;;;;;5035022;28;20428;-74
2021/09/07 00:25:09;;;;;;;0.00;0.00;;;10.60;60.90;;;;;;5034949;28;20028;-75
2021/09/07 00:27:35;;;;;;;0.00;0.00;;;10.50;61.00;;;;;;5033558;28;20033;-75
2021/09/07 00:30:01;;;;;;;0.00;0.00;;;10.50;61.10;;;;;;5035098;28;20030;-73
2021/09/07 00:32:27;;;;;;;0.00;0.00;;;10.50;61.10;;;;;;5034496;28;20029;-74
2021/09/07 00:34:52;;;;;;;0.00;0.00;;;10.50;61.20;;;;;;5034778;28;20030;-75
2021/09/07 00:37:18;;;;;;;0.00;0.00;;;10.50;61.30;;;;;;5034935;28;20037;-75
2021/09/07 00:39:44;;;;;;;0.00;0.00;;;10.40;61.30;;;;;;5033411;28;20470;-75
2021/09/07 00:42:09;;;;;;;0.00;0.00;;;10.40;61.30;;;;;;5034351;28;20025;-74
2021/09/07 00:44:35;;;;;;;0.00;0.00;;;10.40;61.30;;;;;;5034296;28;20474;-74
2021/09/07 00:47:04;;;;;;;0.00;0.00;;;10.40;61.30;;;;;;5034575;28;20033;-74
2021/09/07 00:49:31;;;;;;;0.00;0.00;;;10.40;61.50;;;;;;5034452;28;20029;-74
2021/09/07 00:51:58;;;;;;;0.00;0.00;;;10.30;61.60;;;;;;5049875;28;20061;-74
2021/09/07 00:54:29;;;;;;;0.00;0.00;;;10.30;61.80;;;;;;5034692;28;20053;-74
2021/09/07 00:56:55;;;;;;;0.00;0.00;;;10.20;61.90;;;;;;5034315;28;20034;-75
2021/09/07 00:59:23;;;;;;;0.00;0.00;;;10.20;62.00;;;;;;5049676;28;20032;-74
2021/09/07 01:01:49;;;;;;;0.00;0.00;;;10.20;62.10;;;;;;5034874;28;20162;-74
2021/09/07 01:04:15;;;;;;;0.00;0.00;;;10.10;62.20;;;;;;5033029;28;20033;-74
2021/09/07 01:06:41;;;;;;;0.00;0.00;;;10.10;62.40;;;;;;5034222;28;20029;-75
2021/09/07 01:09:08;;;;;;;0.00;0.00;;;10.10;62.50;;;;;;5032923;28;20025;-74
2021/09/07 01:11:34;;;;;;;0.00;0.00;;;10.10;62.60;;;;;;5033928;28;20034;-74
2021/09/07 01:14:00;;;;;;;0.00;0.00;;;10.10;62.60;;;;;;5034221;28;20025;-73
2021/09/07 01:16:26;;;;;;;0.00;0.00;;;10.00;62.60;;;;;;5032706;28;20033;-74
2021/09/07 01:18:52;;;;;;;0.00;0.00;;;10.00;62.70;;;;;;5033887;28;20037;-74
2021/09/07 01:21:18;;;;;;;0.00;0.00;;;10.00;62.80;;;;;;5034563;28;20120;-75
2021/09/07 01:23:48;;;;;;;0.03;0.00;;;9.90;62.90;;;;;;5033949;28;20377;-73
2021/09/07 01:26:19;;;;;;;0.00;0.00;;;9.90;63.20;;;;;;5034019;28;20025;-75
2021/09/07 01:28:46;;;;;;;0.00;0.00;;;9.80;63.40;;;;;;5032599;28;20030;-75
2021/09/07 01:31:12;;;;;;;0.00;0.00;;;9.80;63.50;;;;;;5034455;28;20163;-75
2021/09/07 01:33:39;;;;;;;0.00;0.00;;;9.80;63.70;;;;;;5033796;28;20488;-75
2021/09/07 01:36:05;;;;;;;0.00;0.00;;;9.80;63.80;;;;;;5033451;28;20469;-74
2021/09/07 01:38:31;;;;;;;0.10;0.00;;;9.80;63.90;;;;;;5049752;28;20116;-74
2021/09/07 01:40:58;;;;;;;0.00;0.00;;;9.80;63.80;;;;;;5033798;28;20064;-74
2021/09/07 01:43:24;;;;;;;0.00;0.00;;;9.90;63.80;;;;;;5033459;28;20537;-74
2021/09/07 01:45:52;;;;;;;0.00;0.00;;;9.90;63.70;;;;;;5034080;28;20068;-74
2021/09/07 01:48:19;;;;;;;0.00;0.00;;;10.00;63.70;;;;;;5033713;28;20040;-73
2021/09/07 01:50:46;;;;;;;0.00;0.00;;;10.00;63.70;;;;;;5033744;28;20466;-74
2021/09/07 01:53:12;;;;;;;0.00;0.00;;;10.10;63.60;;;;;;5034055;28;20045;-73
2021/09/07 01:55:38;;;;;;;0.00;0.00;;;10.10;63.50;;;;;;5033564;28;20037;-73
2021/09/07 01:58:04;;;;;;;0.00;0.00;;;10.10;63.50;;;;;;5033356;28;20047;-74
2021/09/07 02:00:29;;;;;;;0.00;0.00;;;10.20;63.50;;;;;;5033293;28;20082;-74
2021/09/07 02:02:55;;;;;;;0.00;0.00;;;10.20;63.30;;;;;;5033284;28;20025;-74
2021/09/07 02:05:21;;;;;;;0.00;0.00;;;10.30;63.30;;;;;;5033521;28;20026;-73
2021/09/07 02:07:47;;;;;;;0.00;0.00;;;10.30;63.30;;;;;;5033259;28;20080;-74
2021/09/07 02:10:13;;;;;;;0.00;0.00;;;10.30;63.30;;;;;;5033775;28;20037;-75
2021/09/07 02:12:39;;;;;;;0.00;0.00;;;10.30;63.30;;;;;;5034559;28;20030;-75
2021/09/07 02:15:07;;;;;;;0.00;0.00;;;10.30;63.40;;;;;;5037387;28;20029;-75
2021/09/07 02:17:33;;;;;;;0.00;0.00;;;10.30;63.40;;;;;;5036291;28;20037;-75
2021/09/07 02:19:58;;;;;;;0.00;0.00;;;10.30;63.50;;;;;;5037239;28;20033;-75
2021/09/07 02:22:25;;;;;;;0.00;0.00;;;10.30;63.50;;;;;;5037205;28;20040;-76
2021/09/07 02:24:51;;;;;;;0.00;0.00;;;10.30;63.60;;;;;;5036411;28;20135;-75
2021/09/07 02:27:17;;;;;;;0.00;0.00;;;10.30;63.60;;;;;;5037177;28;20033;-75
2021/09/07 02:29:43;;;;;;;0.00;0.00;;;10.30;63.60;;;;;;5037086;28;20048;-75
2021/09/07 02:32:09;;;;;;;0.00;0.00;;;10.40;63.60;;;;;;5036633;28;20057;-74
2021/09/07 02:34:35;;;;;;;0.00;0.00;;;10.40;63.50;;;;;;5036726;28;20583;-74
2021/09/07 02:37:01;;;;;;;0.00;0.00;;;10.40;63.40;;;;;;5037086;28;20025;-75
2021/09/07 02:39:27;;;;;;;0.00;0.00;;;10.40;63.30;;;;;;5036497;28;20470;-75
2021/09/07 02:41:53;;;;;;;0.00;0.00;;;10.40;63.30;;;;;;5036447;28;20053;-74
2021/09/07 02:44:19;;;;;;;0.00;0.00;;;10.40;63.30;;;;;;5036804;28;20429;-75
2021/09/07 02:46:46;;;;;;;0.00;0.00;;;10.40;63.10;;;;;;5036767;28;20087;-73
2021/09/07 02:49:12;;;;;;;0.00;0.00;;;10.50;63.00;;;;;;5036410;28;20022;-74
2021/09/07 02:51:38;;;;;;;0.00;0.00;;;10.50;62.90;;;;;;5036958;28;20026;-74
2021/09/07 02:54:04;;;;;;;0.00;0.00;;;10.50;62.90;;;;;;5037386;28;20076;-74
2021/09/07 02:56:30;;;;;;;0.05;0.00;;;10.40;62.90;;;;;;5035239;28;20029;-74
2021/09/07 02:58:56;;;;;;;0.00;0.00;;;10.40;62.90;;;;;;5036275;28;20026;-74
2021/09/07 03:01:22;;;;;;;0.00;0.00;;;10.30;62.90;;;;;;5051862;28;20449;-74
2021/09/07 03:03:48;;;;;;;0.00;0.00;;;10.30;63.10;;;;;;5036138;28;20453;-74
2021/09/07 03:06:14;;;;;;;0.00;0.00;;;10.20;63.20;;;;;;5036410;28;20040;-74
2021/09/07 03:08:39;;;;;;;0.00;0.00;;;10.10;63.30;;;;;;5036630;28;20029;-74
2021/09/07 03:11:05;;;;;;;0.00;0.00;;;10.00;63.60;;;;;;5036282;28;20032;-74
2021/09/07 03:13:31;;;;;;;0.00;0.00;;;10.00;63.80;;;;;;5036789;28;20087;-74
2021/09/07 03:15:57;;;;;;;0.00;0.00;;;10.00;64.00;;;;;;5035815;28;20041;-73
2021/09/07 03:18:23;;;;;;;0.00;0.00;;;9.90;64.00;;;;;;5036474;28;20450;-74
2021/09/07 03:20:49;;;;;;;0.00;0.00;;;9.90;64.10;;;;;;5036675;28;20361;-74
2021/09/07 03:23:15;;;;;;;0.00;0.00;;;9.80;64.10;;;;;;5036012;28;20038;-74
2021/09/07 03:25:41;;;;;;;0.00;0.00;;;9.80;64.20;;;;;;5035060;28;20417;-74
2021/09/07 03:28:07;;;;;;;0.00;0.00;;;9.70;64.30;;;;;;5035310;28;20354;-74
2021/09/07 03:30:33;;;;;;;0.00;0.00;;;9.70;64.40;;;;;;5035696;28;20481;-74
2021/09/07 03:32:59;;;;;;;0.00;0.00;;;9.70;64.40;;;;;;5035838;28;20053;-75
2021/09/07 03:35:25;;;;;;;0.00;0.00;;;9.60;64.50;;;;;;5035867;28;20030;-74
2021/09/07 03:37:50;;;;;;;0.00;0.00;;;9.60;64.60;;;;;;5035458;28;20461;-75
2021/09/07 03:40:16;;;;;;;0.00;0.00;;;9.50;64.60;;;;;;5036026;28;20025;-75
2021/09/07 03:42:42;;;;;;;0.00;0.00;;;9.50;64.70;;;;;;5035477;28;20494;-74
2021/09/07 03:45:11;;;;;;;0.00;0.00;;;9.50;64.90;;;;;;5035372;28;20108;-75
2021/09/07 03:47:38;;;;;;;0.00;0.00;;;9.50;65.00;;;;;;5036109;28;20067;-73
2021/09/07 03:50:05;;;;;;;0.00;0.00;;;9.40;65.00;;;;;;5034012;28;20385;-74
2021/09/07 03:52:31;;;;;;;0.00;0.00;;;9.40;65.00;;;;;;5035225;28;20021;-75
2021/09/07 03:54:57;;;;;;;0.00;0.00;;;9.40;65.00;;;;;;5035457;28;20517;-75
2021/09/07 03:57:23;;;;;;;0.00;0.00;;;9.30;65.10;;;;;;5035562;28;20040;-76
2021/09/07 03:59:49;;;;;;;0.00;0.00;;;9.30;65.10;;;;;;5034384;28;20029;-74
2021/09/07 04:02:15;;;;;;;0.00;0.00;;;9.30;65.30;;;;;;5035297;28;20450;-74
2021/09/07 04:04:40;;;;;;;0.00;0.00;;;9.30;65.40;;;;;;5035280;28;20030;-74
2021/09/07 04:07:06;;;;;;;0.00;0.00;;;9.30;65.50;;;;;;5035288;28;20032;-75
2021/09/07 04:09:32;;;;;;;0.00;0.00;;;9.30;65.50;;;;;;5050629;28;20085;-75
2021/09/07 04:11:58;;;;;;;0.00;0.00;;;9.30;65.50;;;;;;5035218;28;20516;-75
2021/09/07 04:14:23;;;;;;;0.00;0.00;;;9.30;65.50;;;;;;5035312;28;20191;-74
2021/09/07 04:16:49;;;;;;;0.00;0.00;;;9.30;65.50;;;;;;5035076;28;20112;-75
2021/09/07 04:19:16;;;;;;;0.00;0.00;;;9.30;65.50;;;;;;5035154;28;20104;-74
2021/09/07 04:21:47;;;;;;;0.00;0.00;;;9.30;65.40;;;;;;5035745;28;20017;-75
2021/09/07 04:24:13;;;;;;;0.00;0.00;;;9.40;65.40;;;;;;5036221;28;20079;-74
2021/09/07 04:26:39;;;;;;;0.00;0.00;;;9.50;65.30;;;;;;5035598;28;20033;-74
2021/09/07 04:29:05;;;;;;;0.00;0.00;;;9.60;65.30;;;;;;5033953;28;20025;-74
2021/09/07 04:31:32;;;;;;;0.00;0.00;;;9.70;65.20;;;;;;5050889;28;20029;-75
2021/09/07 04:33:58;;;;;;;0.00;0.00;;;9.80;65.00;;;;;;5034662;28;20144;-74
2021/09/07 04:36:27;;;;;;;0.00;0.00;;;10.00;64.80;;;;;;5034059;28;20029;-74
2021/09/07 04:38:53;;;;;;;0.00;0.00;;;10.10;64.60;;;;;;5034279;28;20040;-75
2021/09/07 04:41:19;;;;;;;0.00;0.00;;;10.30;64.40;;;;;;5034122;28;20120;-75
2021/09/07 04:43:57;;;;;;;0.00;0.00;;;10.40;64.20;;;;;;5035468;28;20030;-76
2021/09/07 04:46:26;;;;;;;0.00;0.00;;;10.50;64.00;;;;;;5036051;28;20390;-75
2021/09/07 04:49:00;;;;;;;0.00;0.00;;;10.70;63.70;;;;;;5035348;28;20355;-76
2021/09/07 04:51:26;;;;;;;0.00;0.00;;;10.80;63.60;;;;;;5033975;28;20021;-74
2021/09/07 04:53:53;;;;;;;0.20;0.08;;;10.80;63.30;;;;;;5034516;28;20118;-76
2021/09/07 04:56:18;;;;;;;0.00;0.00;;;10.90;63.20;;;;;;5034308;28;20461;-75
2021/09/07 04:58:55;;;;;;;0.00;0.00;;;11.10;62.90;;;;;;5035182;28;20038;-74
2021/09/07 05:01:22;;;;;;;0.00;0.00;;;11.20;62.60;;;;;;5034033;28;20061;-75
2021/09/07 05:03:48;;;;;;;0.00;0.00;;;11.30;62.20;;;;;;5033823;28;20045;-74
2021/09/07 05:06:14;;;;;;;0.00;0.00;;;11.40;61.90;;;;;;5033842;28;20035;-75
2021/09/07 05:08:39;;;;;;;0.00;0.00;;;11.50;61.60;;;;;;5033828;28;20466;-76
2021/09/07 05:11:05;;;;;;;0.10;0.10;;;11.50;61.30;;;;;;5034204;28;20021;-75
2021/09/07 05:13:31;;;;;;;0.00;0.00;;;11.70;61.10;;;;;;5033937;28;20381;-76
2021/09/07 05:15:58;;;;;;;0.00;0.00;;;11.80;60.80;;;;;;5032552;28;20029;-76
2021/09/07 05:18:24;;;;;;;0.00;0.00;;;11.90;60.60;;;;;;5033523;28;20033;-74
2021/09/07 05:20:50;;;;;;;0.00;0.00;;;12.00;60.30;;;;;;5033701;28;20021;-76
2021/09/07 05:23:15;;;;;;;0.00;0.00;;;12.20;60.00;;;;;;5032446;28;20029;-75
2021/09/07 05:25:41;;;;;;;0.00;0.00;;;12.30;59.90;;;;;;5033506;28;20064;-77
2021/09/07 05:28:07;;;;;;;0.00;0.00;;;12.40;59.60;;;;;;5032550;28;20060;-75
2021/09/07 05:30:32;;;;;;;0.00;0.00;;;12.50;58.90;;;;;;5033934;28;20041;-75
2021/09/07 05:32:58;;;;;;;0.10;0.00;;;12.60;58.40;;;;;;5033425;28;20049;-77
2021/09/07 05:35:24;;;;;;;0.00;0.00;;;12.70;58.00;;;;;;5033564;28;20029;-76
2021/09/07 05:37:49;;;;;;;0.00;0.00;;;12.80;57.90;;;;;;5033824;28;20030;-76
2021/09/07 05:40:15;;;;;;;0.08;0.00;;;12.90;57.70;;;;;;5033168;28;20029;-76
2021/09/07 05:42:43;;;;;;;0.00;0.00;;;13.10;57.40;;;;;;5033688;28;20064;-77
2021/09/07 05:45:10;;;;;;;0.00;0.00;;;13.20;57.10;;;;;;5033603;28;20080;-76
2021/09/07 05:47:36;;;;;;;0.00;0.00;;;13.30;56.60;;;;;;5032691;28;20116;-74
2021/09/07 05:50:03;;;;;;;0.00;0.00;;;13.40;56.20;;;;;;5036373;28;20052;-78
2021/09/07 05:52:30;;;;;;;0.00;0.00;;;13.50;56.00;;;;;;5037593;28;20030;-76
2021/09/07 05:54:56;;;;;;;0.00;0.00;;;13.60;55.50;;;;;;5037824;28;20033;-75
2021/09/07 05:57:22;;;;;;;0.00;0.00;;;13.70;55.10;;;;;;5036989;28;20039;-78
2021/09/07 05:59:48;;;;;;;0.00;0.00;;;13.90;54.80;;;;;;5037533;28;20104;-77
2021/09/07 06:02:13;;;;;;;0.00;0.00;;;14.00;54.50;;;;;;5036275;28;20037;-76
2021/09/07 06:04:39;;;;;;;0.10;0.00;;;14.10;54.10;;;;;;5037309;28;20068;-76
2021/09/07 06:07:05;;;;;;;0.00;0.00;;;14.20;53.90;;;;;;5036994;28;20035;-75
2021/09/07 06:09:31;;;;;;;0.00;0.00;;;14.30;53.70;;;;;;5037448;28;20492;-75
2021/09/07 06:11:56;;;;;;;0.00;0.00;;;14.40;53.60;;;;;;5037942;28;20109;-76
2021/09/07 06:14:22;;;;;;;0.00;0.00;;;14.50;53.20;;;;;;5037086;28;20017;-75
2021/09/07 06:16:48;;;;;;;0.00;0.00;;;14.60;52.80;;;;;;5052858;28;20509;-75
2021/09/07 06:19:13;;;;;;;0.00;0.00;;;14.70;52.50;;;;;;5036864;28;20033;-76
2021/09/07 06:21:39;;;;;;;0.00;0.00;;;14.80;52.60;;;;;;5036862;28;20108;-77
2021/09/07 06:24:05;;;;;;;0.00;0.00;;;14.90;52.40;;;;;;5036913;28;20028;-77
2021/09/07 06:26:31;;;;;;;0.00;0.00;;;15.00;52.00;;;;;;5036201;28;20029;-75
2021/09/07 06:28:57;;;;;;;0.00;0.00;;;15.00;51.90;;;;;;5037664;28;20087;-77
2021/09/07 06:31:47;;;;;;;0.00;0.00;;;15.10;51.80;;;;;;5037150;28;20103;-77
2021/09/07 06:34:16;;;;;;;0.00;0.00;;;15.20;51.50;;;;;;5037783;28;20052;-75
2021/09/07 06:37:15;;;;;;;0.00;0.00;;;15.30;51.30;;;;;;5036972;28;20457;-76
2021/09/07 06:39:43;;;;;;;0.00;0.00;;;15.40;50.70;;;;;;5036020;28;20101;-77
2021/09/07 06:42:10;;;;;;;0.00;0.00;;;15.50;50.80;;;;;;5037486;28;20041;-77
2021/09/07 06:44:36;;;;;;;0.00;0.00;;;15.60;50.60;;;;;;5036296;28;20035;-76
2021/09/07 06:47:05;;;;;;;0.00;0.00;;;15.70;50.50;;;;;;5051700;28;20053;-77
2021/09/07 06:49:41;;;;;;;0.00;0.00;;;15.80;50.10;;;;;;5052993;28;20119;-76
2021/09/07 06:52:07;;;;;;;0.00;0.00;;;15.90;49.90;;;;;;5037046;28;20045;-77
2021/09/07 06:54:33;;;;;;;0.00;0.00;;;16.00;49.80;;;;;;5035060;28;20056;-78
2021/09/07 06:56:58;;;;;;;0.00;0.00;;;16.10;49.40;;;;;;5035412;28;20473;-76
2021/09/07 06:59:24;;;;;;;0.00;0.00;;;16.20;49.40;;;;;;5034964;28;20064;-76
2021/09/07 07:01:50;;;;;;;0.00;0.00;;;16.30;48.90;;;;;;5035205;28;20115;-76
2021/09/07 07:04:15;;;;;;;0.00;0.00;;;16.40;48.60;;;;;;5036193;28;20029;-75
2021/09/07 07:06:41;;;;;;;0.00;0.00;;;16.40;48.40;;;;;;5036111;28;20104;-77
2021/09/07 07:09:20;;;;;;;0.00;0.00;;;16.50;48.30;;;;;;5036103;28;20029;-76
2021/09/07 07:11:46;;;;;;;0.00;0.00;;;16.70;48.00;;;;;;5036357;28;20021;-75
2021/09/07 07:14:11;;;;;;;0.00;0.00;;;16.80;47.70;;;;;;5036279;28;20548;-75
2021/09/07 07:16:37;;;;;;;0.00;0.00;;;17.00;47.60;;;;;;5036044;28;20029;-75
2021/09/07 07:19:03;;;;;;;0.00;0.00;;;17.10;47.30;;;;;;5035823;28;20068;-75
2021/09/07 07:21:29;;;;;;;0.00;0.00;;;17.20;47.20;;;;;;5036011;28;20061;-75
2021/09/07 07:23:56;;;;;;;0.10;0.00;;;17.30;47.00;;;;;;5035807;28;20104;-75
2021/09/07 07:26:22;;;;;;;0.00;0.00;;;17.50;46.90;;;;;;5036297;28;20030;-76
2021/09/07 07:28:48;;;;;;;0.10;0.00;;;17.60;46.40;;;;;;5036222;28;20098;-75
2021/09/07 07:31:13;;;;;;;0.00;0.00;;;17.80;46.40;;;;;;5035845;28;20129;-74
2021/09/07 07:33:39;;;;;;;0.00;0.00;;;17.90;46.80;;;;;;5034111;28;20065;-76
2021/09/07 07:36:05;;;;;;;0.10;0.00;;;18.20;47.50;;;;;;5036015;28;20468;-75
2021/09/07 07:38:30;;;;;;;0.10;0.10;;;18.40;47.70;;;;;;5035929;28;20391;-76
2021/09/07 07:40:56;;;;;;;0.00;0.00;;;18.60;47.80;;;;;;5034714;28;20028;-76
2021/09/07 07:43:25;;;;;;;0.00;0.00;;;18.90;48.10;;;;;;5035475;28;20022;-75
2021/09/07 07:45:51;;;;;;;0.00;0.00;;;19.10;48.30;;;;;;5035750;28;20347;-76
2021/09/07 07:48:17;;;;;;;0.00;0.00;;;19.30;48.00;;;;;;5035608;28;20095;-75
2021/09/07 07:50:43;;;;;;;0.00;0.00;;;19.60;47.50;;;;;;5035724;28;20425;-77
2021/09/07 07:53:09;;;;;;;0.00;0.00;;;19.80;47.40;;;;;;5035570;28;20084;-75
2021/09/07 07:55:35;;;;;;;0.00;0.00;;;20.10;47.70;;;;;;5035739;28;20022;-76
2021/09/07 07:58:00;;;;;;;0.00;0.00;;;20.30;47.50;;;;;;5036057;28;20127;-75
2021/09/07 08:00:26;;;;;;;0.00;0.00;;;20.50;47.10;;;;;;5035346;28;20434;-76
2021/09/07 08:02:52;;;;;;;0.00;0.00;;;20.80;46.80;;;;;;5035563;28;20075;-75
2021/09/07 08:05:18;;;;;;;0.00;0.00;;;21.10;46.40;;;;;;5035261;28;20064;-76
2021/09/07 08:07:43;;;;;;;0.00;0.00;;;21.30;46.20;;;;;;5050648;28;20033;-76
2021/09/07 08:10:10;;;;;;;0.00;0.00;;;21.60;45.90;;;;;;5034589;28;20052;-76
2021/09/07 08:12:35;;;;;;;0.00;0.00;;;21.90;45.50;;;;;;5035024;28;20029;-75
2021/09/07 08:15:01;;;;;;;0.00;0.00;;;22.10;44.90;;;;;;5034887;28;20029;-75
2021/09/07 08:17:27;;;;;;;0.00;0.00;;;22.40;44.50;;;;;;5035044;28;20025;-75
2021/09/07 08:19:53;;;;;;;0.00;0.00;;;22.70;44.30;;;;;;5035130;28;20056;-75
2021/09/07 08:22:22;;;;;;;0.00;0.00;;;22.90;43.60;;;;;;5033605;28;20470;-75
2021/09/07 08:24:49;;;;;;;0.00;0.00;;;23.20;43.10;;;;;;5033517;28;20380;-75
2021/09/07 08:27:15;;;;;;;0.00;0.00;;;23.40;42.80;;;;;;5034721;28;20033;-75
2021/09/07 08:29:40;;;;;;;0.00;0.00;;;23.60;42.40;;;;;;5033729;28;20355;-75
2021/09/07 08:32:07;;;;;;;0.13;0.03;;;23.90;42.10;;;;;;5034656;28;20380;-76
2021/09/07 08:34:32;;;;;;;0.00;0.00;;;24.10;41.60;;;;;;5034738;28;20036;-75
2021/09/07 08:36:58;;;;;;;0.00;0.00;;;24.30;41.40;;;;;;5033294;28;20037;-76
2021/09/07 08:39:24;;;;;;;0.00;0.00;;;24.50;41.40;;;;;;5034930;28;20029;-76
2021/09/07 08:41:50;;;;;;;0.00;0.00;;;24.70;41.10;;;;;;5033145;28;20441;-76
2021/09/07 08:44:19;;;;;;;0.00;0.00;;;25.00;40.80;;;;;;5034655;28;20021;-76
2021/09/07 08:46:45;;;;;;;0.00;0.00;;;25.20;40.00;;;;;;5034769;28;20068;-75
2021/09/07 08:49:13;;;;;;;0.00;0.00;;;25.50;39.90;;;;;;5034295;28;20030;-74
2021/09/07 08:51:38;;;;;;;0.00;0.00;;;25.70;40.40;;;;;;5034329;28;20021;-75
2021/09/07 08:54:04;;;;;;;0.00;0.00;;;25.90;40.20;;;;;;5035138;28;20572;-75
2021/09/07 08:56:30;;;;;;;0.00;0.00;;;26.10;39.30;;;;;;5034973;28;20412;-74
2021/09/07 08:58:56;;;;;;;0.00;0.00;;;26.30;39.00;;;;;;5034102;28;20040;-74
2021/09/07 09:01:24;;;;;;;0.00;0.00;;;26.40;38.70;;;;;;5033873;28;20056;-74
2021/09/07 09:03:50;;;;;;;0.00;0.00;;;26.70;38.40;;;;;;5033981;28;20030;-75
2021/09/07 09:06:26;;;;;;;0.00;0.00;;;26.90;38.20;;;;;;5034193;28;20034;-75
2021/09/07 09:09:06;;;;;;;0.00;0.00;;;27.20;38.00;;;;;;5034773;28;20029;-76
2021/09/07 09:11:56;;;;;;;0.00;0.00;;;27.60;37.40;;;;;;5034049;28;20053;-76
2021/09/07 09:14:41;;;;;;;0.00;0.00;;;27.90;37.20;;;;;;5033898;28;20029;-75
2021/09/07 09:17:23;;;;;;;0.00;0.00;;;28.10;37.00;;;;;;5032474;28;20038;-73
2021/09/07 09:20:00;;;;;;;0.10;0.05;;;28.40;36.80;;;;;;5034156;28;20030;-75
2021/09/07 09:22:41;;;;;;;0.00;0.00;;;28.70;36.40;;;;;;5033818;28;20021;-75
2021/09/07 09:25:22;;;;;;;0.00;0.00;;;28.40;35.90;;;;;;5033704;28;20060;-76
2021/09/07 09:27:49;;;;;;;0.00;0.00;;;27.70;35.70;;;;;;5032680;28;20033;-77
2021/09/07 09:30:15;;;;;;;0.00;0.00;;;27.80;35.80;;;;;;5033572;28;20033;-75
2021/09/07 09:32:51;;;;;;;0.00;0.00;;;28.10;35.50;;;;;;5033924;28;20025;-75
2021/09/07 09:35:17;;;;;;;0.00;0.00;;;28.60;35.10;;;;;;5032169;28;20025;-75
2021/09/07 09:38:01;;;;;;;0.00;0.00;;;29.10;35.00;;;;;;5033340;28;20040;-75
2021/09/07 09:40:27;;;;;;;;;;;29.40;34.40;;;;;;5034277;28;20037;-75
2021/09/07 09:42:54;;;;;;;0.00;0.00;;;29.70;34.90;;;;;;5032326;28;20410;-76
2021/09/07 09:45:28;;;;;;;0.00;0.00;;;30.10;34.20;;;;;;5033314;28;20021;-74
2021/09/07 09:47:57;;;;;;;0.00;0.00;;;30.50;33.70;;;;;;5033263;28;20034;-76
2021/09/07 09:50:27;;;;;;;0.00;0.00;;;30.80;33.60;;;;;;5033792;28;20030;-77
2021/09/07 09:52:53;;;;;;;0.00;0.00;;;31.20;33.40;;;;;;5033351;28;20072;-75
2021/09/07 09:55:19;;;;;;;0.05;0.00;;;31.60;33.20;;;;;;5034049;28;20120;-75
2021/09/07 09:57:46;;;;;;;0.00;0.00;;;32.00;33.10;;;;;;5033093;28;20116;-75
2021/09/07 10:00:13;;;;;;;0.10;0.00;;;32.50;32.50;;;;;;5033447;28;20066;-75
2021/09/07 10:02:41;;;;;;;0.00;0.00;;;32.90;32.00;;;;;;5033046;28;20026;-75
2021/09/07 10:05:08;;;;;;;0.00;0.00;;;33.30;31.90;;;;;;5033348;28;20021;-75
2021/09/07 10:07:34;;;;;;;0.00;0.00;;;33.60;31.80;;;;;;5031770;28;20041;-76
2021/09/07 10:10:00;;;;;;;0.00;0.00;;;33.90;31.50;;;;;;5032218;28;20029;-76
2021/09/07 10:12:33;;;;;;;0.00;0.00;;;34.10;31.20;;;;;;5033539;28;20108;-75
2021/09/07 10:17:35;;;;;;;0.00;0.00;;;34.60;30.90;;;;;;5033472;28;20039;-76
2021/09/07 10:20:26;;;;;;;0.15;0.10;;;35.10;30.50;;;;;;5033765;28;20022;-77
2021/09/07 10:25:48;;;;;;;0.05;0.05;;;36.20;30.00;;;;;;5033198;28;20462;-77
2021/09/07 10:28:31;;;;;;;0.17;0.17;;;36.50;29.70;;;;;;5033109;28;20042;-76
2021/09/07 10:31:12;;;;;;;0.10;0.10;;;36.90;29.50;;;;;;5032963;28;20022;-76
2021/09/07 10:33:43;;;;;;;0.00;0.00;;;37.20;29.50;;;;;;5034036;28;20037;-76
2021/09/07 10:36:14;;;;;;;0.10;0.10;;;37.60;29.10;;;;;;5035155;28;20053;-77
2021/09/07 10:38:40;;;;;;;0.00;0.00;;;37.70;28.90;;;;;;5035726;28;20105;-76
2021/09/07 10:41:10;;;;;;;0.00;0.00;;;38.00;28.90;;;;;;5037995;28;20056;-77
2021/09/07 10:43:52;;;;;;;0.00;0.00;;;38.30;28.80;;;;;;5035868;28;20430;-76
2021/09/07 10:46:38;;;;;;;0.00;0.00;;;38.60;28.50;;;;;;5037500;28;20036;-76
2021/09/07 10:49:20;;;;;;;0.00;0.00;;;38.90;28.50;;;;;;5036046;28;20377;-78
2021/09/07 10:52:04;;;;;;;0.00;0.00;;;39.20;28.30;;;;;;5036875;28;20116;-77
2021/09/07 10:54:32;;;;;;;0.00;0.00;;;39.40;28.20;;;;;;5037453;28;20045;-77
2021/09/07 10:56:59;;;;;;;0.00;0.00;;;39.60;28.30;;;;;;5052047;28;20083;-77
2021/09/07 10:59:48;;;;;;;0.10;0.10;;;39.90;28.20;;;;;;5036337;28;20368;-76
2021/09/07 11:02:34;;;;;;;0.10;0.00;;;40.20;27.90;;;;;;5034758;28;20021;-77
2021/09/07 11:05:02;;;;;;;0.05;0.05;;;40.50;27.90;;;;;;5036481;28;20041;-78
2021/09/07 11:07:48;;;;;;;0.00;0.00;;;40.90;27.70;;;;;;5035147;28;20113;-76
2021/09/07 11:10:17;;;;;;;0.10;0.10;;;41.00;27.30;;;;;;5051609;28;20179;-76
2021/09/07 11:12:53;;;;;;;0.00;0.00;;;41.20;27.10;;;;;;5035005;28;20382;-78
2021/09/07 11:15:24;;;;;;;0.10;0.10;;;41.40;26.80;;;;;;5036258;28;20026;-76
2021/09/07 11:17:56;;;;;;;0.10;0.00;;;41.60;26.70;;;;;;5036016;28;20039;-77
2021/09/07 11:20:30;;;;;;;0.00;0.00;;;41.70;26.50;;;;;;5036423;28;20026;-74
2021/09/07 11:22:59;;;;;;;0.03;0.03;;;41.80;26.60;;;;;;5035036;28;20273;-75
2021/09/07 11:25:25;;;;;;;0.13;0.13;;;41.90;26.50;;;;;;5034831;28;20032;-76
2021/09/07 11:27:55;;;;;;;0.10;0.10;;;42.10;26.40;;;;;;5051417;28;20033;-76
2021/09/07 11:30:24;;;;;;;0.03;0.03;;;42.20;26.30;;;;;;5035787;28;20049;-81
2021/09/07 11:33:04;;;;;;;0.10;0.10;;;42.30;26.30;;;;;;5034330;28;20464;-78
2021/09/07 11:35:33;;;;;;;0.00;0.00;;;42.40;26.30;;;;;;5036183;28;20113;-76
2021/09/07 11:38:08;;;;;;;0.00;0.00;;;42.60;26.40;;;;;;5034177;28;20041;-77
2021/09/07 11:40:37;;;;;;;0.00;0.00;;;42.60;26.40;;;;;;5036089;28;20489;-76
2021/09/07 11:43:03;;;;;;;0.00;0.00;;;42.50;26.30;;;;;;5035683;28;20083;-79
2021/09/07 11:45:34;;;;;;;0.00;0.00;;;42.30;26.20;;;;;;5033924;28;20030;-77
2021/09/07 11:48:02;;;;;;;0.00;0.00;;;42.30;26.10;;;;;;5035623;28;20469;-77
2021/09/07 11:50:33;;;;;;;0.00;0.00;;;42.10;26.20;;;;;;5034230;28;20081;-78
2021/09/07 11:53:02;;;;;;;0.00;0.00;;;42.20;26.20;;;;;;5034452;28;20050;-77
2021/09/07 11:55:41;;;;;;;0.00;0.00;;;42.30;26.10;;;;;;5035402;28;20075;-78
2021/09/07 11:58:08;;;;;;;0.00;0.00;;;42.30;26.10;;;;;;5034735;28;20049;-77
2021/09/07 12:00:35;;;;;;;0.00;0.00;;;42.50;26.20;;;;;;5034195;28;20034;-76
2021/09/07 12:03:14;;;;;;;0.00;0.00;;;42.30;26.00;;;;;;5034542;28;20461;-77
2021/09/07 12:05:51;;;;;;;0.10;0.10;;;42.30;25.90;;;;;;5035104;28;20450;-76
2021/09/07 12:08:17;;;;;;;0.10;0.10;;;42.50;25.90;;;;;;5036046;28;20104;-74
2021/09/07 12:10:56;;;;;;;0.10;0.10;;;42.50;26.00;;;;;;5034261;28;20049;-74
2021/09/07 12:13:23;;;;;;;0.03;0.03;;;42.70;25.90;;;;;;5034442;28;20056;-75
2021/09/07 12:15:50;;;;;;;0.00;0.00;;;42.90;26.00;;;;;;5034013;28;20029;-76
2021/09/07 12:18:39;;;;;;;0.10;0.10;;;43.10;26.00;;;;;;5034515;28;20139;-76
2021/09/07 12:21:24;;;;;;;0.05;0.05;;;43.10;25.90;;;;;;5035171;28;20026;-74
2021/09/07 12:23:52;;;;;;;0.00;0.00;;;43.10;25.80;;;;;;5033153;28;20021;-71
2021/09/07 12:26:36;;;;;;;0.13;0.13;;;43.10;25.80;;;;;;5032416;28;20345;-68
2021/09/07 12:29:18;;;;;;;0.08;0.08;;;43.20;25.60;;;;;;5034863;28;20507;-72
2021/09/07 12:31:45;;;;;;;0.03;0.03;;;43.20;25.60;;;;;;5035089;28;20023;-68
2021/09/07 12:34:19;;;;;;;0.00;0.00;;;43.20;25.70;;;;;;5034694;28;20025;-69
2021/09/07 12:36:50;;;;;;;0.10;0.10;;;43.20;25.60;;;;;;5049568;28;20083;-68
2021/09/07 12:39:17;;;;;;;0.00;0.00;;;43.30;25.50;;;;;;5033463;28;20095;-69
2021/09/07 12:41:44;;;;;;;0.10;0.10;;;43.30;25.60;;;;;;5034698;28;20113;-70
2021/09/07 12:44:16;;;;;;;0.10;0.10;;;43.40;25.60;;;;;;5033809;28;20090;-70
2021/09/07 12:46:42;;;;;;;0.10;0.10;;;43.40;25.50;;;;;;5034623;28;20052;-71
2021/09/07 12:49:09;;;;;;;0.10;0.10;;;43.40;25.60;;;;;;5033470;28;20036;-70
2021/09/07 12:51:35;;;;;;;0.10;0.10;;;43.20;25.50;;;;;;5032764;28;20037;-71
2021/09/07 12:54:02;;;;;;;0.00;0.00;;;43.00;25.40;;;;;;5035009;28;20076;-73
2021/09/07 12:56:31;;;;;;;0.10;0.10;;;42.90;25.50;;;;;;5048579;28;20063;-76
2021/09/07 12:59:01;;;;;;;0.03;0.03;;;42.90;25.50;;;;;;5034588;28;20029;-76